createdAt,value
2022-07-29T00:00:01.362Z,78.23
2022-07-29T00:02:28.817Z,78.22
2022-07-29T00:04:55.329Z,78.33
2022-07-29T00:07:22.096Z,78.27
2022-07-29T00:09:51.709Z,78.71
2022-07-29T00:12:25.456Z,78.45
2022-07-29T00:14:54.631Z,78.98
2022-07-29T00:17:21.140Z,78.83
2022-07-29T00:19:47.622Z,79.54
2022-07-29T00:22:14.448Z,79.57
2022-07-29T00:24:40.894Z,80.12
2022-07-29T00:27:07.405Z,79.77
2022-07-29T00:29:35.053Z,80.08
2022-07-29T00:32:02.750Z,79.97
2022-07-29T00:34:47.861Z,80.24
2022-07-29T00:37:14.364Z,80.48
2022-07-29T00:39:40.875Z,80.47
2022-07-29T00:42:07.670Z,80.54
2022-07-29T00:44:41.251Z,80.99
2022-07-29T00:47:08.849Z,80.75
2022-07-29T00:49:35.805Z,81.25
2022-07-29T00:52:04.049Z,80.69
2022-07-29T00:54:31.254Z,80.74
2022-07-29T00:56:59.626Z,80.74
2022-07-29T00:59:34.576Z,80.72
2022-07-29T01:02:02.871Z,80.41
2022-07-29T01:04:30.705Z,80.99
2022-07-29T01:06:57.281Z,80.92
2022-07-29T01:09:45.404Z,80.64
2022-07-29T01:12:11.638Z,81.50
2022-07-29T01:14:38.688Z,81.88
2022-07-29T01:17:12.143Z,81.68
2022-07-29T01:19:50.675Z,81.98
2022-07-29T01:22:29.989Z,82.30
2022-07-29T01:25:21.884Z,82.52
2022-07-29T01:28:08.496Z,82.70
2022-07-29T01:30:39.571Z,83.33
2022-07-29T01:33:08.904Z,83.40
2022-07-29T01:35:42.299Z,83.75
2022-07-29T01:38:26.497Z,83.92
2022-07-29T01:40:57.167Z,83.93
2022-07-29T01:43:33.816Z,84.11
2022-07-29T01:46:03.016Z,83.83
2022-07-29T01:48:38.236Z,84.51
2022-07-29T01:51:29.444Z,84.58
2022-07-29T01:54:09.589Z,85.07
2022-07-29T01:56:37.250Z,85.46
2022-07-29T01:59:06.265Z,85.57
2022-07-29T02:01:34.115Z,85.73
2022-07-29T02:04:04.266Z,85.91
2022-07-29T02:06:33.167Z,86.36
2022-07-29T02:09:00.585Z,87.00
2022-07-29T02:11:27.135Z,87.01
2022-07-29T02:13:55.347Z,87.23
2022-07-29T02:16:22.950Z,87.38
2022-07-29T02:18:51.579Z,87.49
2022-07-29T02:21:22.523Z,87.80
2022-07-29T02:23:51.213Z,87.91
2022-07-29T02:26:19.357Z,88.04
2022-07-29T02:28:46.176Z,88.39
2022-07-29T02:31:13.659Z,88.75
2022-07-29T02:33:41.908Z,89.11
2022-07-29T02:36:08.768Z,89.46
2022-07-29T02:38:51.505Z,89.61
2022-07-29T02:41:30.625Z,89.54
2022-07-29T02:44:03.370Z,90.52
2022-07-29T02:46:35.266Z,90.26
2022-07-29T02:49:17.055Z,90.32
2022-07-29T02:51:52.540Z,90.91
2022-07-29T02:54:33.353Z,90.86
2022-07-29T02:57:02.366Z,91.44
2022-07-29T02:59:31.936Z,92.61
2022-07-29T03:01:59.962Z,92.65
2022-07-29T03:04:29.483Z,92.43
2022-07-29T03:06:59.742Z,92.92
2022-07-29T03:09:27.149Z,92.61
2022-07-29T03:11:55.512Z,93.12
2022-07-29T03:14:23.962Z,93.00
2022-07-29T03:16:51.754Z,93.75
2022-07-29T03:19:19.445Z,93.96
2022-07-29T03:21:46.053Z,94.39
2022-07-29T03:24:34.961Z,94.81
2022-07-29T03:27:02.060Z,94.88
2022-07-29T03:29:33.593Z,95.58
2022-07-29T03:32:02.714Z,95.68
2022-07-29T03:34:30.190Z,95.83
2022-07-29T03:36:56.764Z,95.59
2022-07-29T03:39:27.309Z,95.30
2022-07-29T03:41:57.460Z,95.62
2022-07-29T03:44:25.065Z,95.68
2022-07-29T03:46:52.510Z,95.46
2022-07-29T03:49:20.053Z,95.11
2022-07-29T03:51:47.014Z,95.48
2022-07-29T03:54:13.810Z,95.85
2022-07-29T03:56:48.509Z,95.66
2022-07-29T03:59:16.827Z,95.78
2022-07-29T04:01:43.865Z,95.47
2022-07-29T04:04:10.626Z,95.41
2022-07-29T04:06:44.329Z,95.18
2022-07-29T04:09:12.905Z,94.66
2022-07-29T04:12:02.688Z,95.00
2022-07-29T04:14:27.196Z,94.48
2022-07-29T04:16:54.142Z,94.25
2022-07-29T04:19:20.791Z,93.67
2022-07-29T04:21:47.804Z,93.68
2022-07-29T04:24:14.561Z,93.58
2022-07-29T04:26:41.632Z,93.48
2022-07-29T04:29:08.268Z,93.01
2022-07-29T04:31:35.045Z,92.71
2022-07-29T04:34:01.635Z,92.35
2022-07-29T04:36:28.729Z,91.41
2022-07-29T04:38:56.217Z,91.08
2022-07-29T04:41:22.650Z,90.70
2022-07-29T04:43:50.003Z,90.29
2022-07-29T04:46:16.827Z,90.09
2022-07-29T04:48:43.540Z,89.88
2022-07-29T04:51:10.208Z,89.71
2022-07-29T04:53:36.651Z,89.82
2022-07-29T04:56:04.118Z,89.73
2022-07-29T04:58:30.771Z,90.69
2022-07-29T05:00:57.323Z,89.53
2022-07-29T05:03:23.816Z,88.75
2022-07-29T05:05:50.539Z,88.11
2022-07-29T05:08:17.085Z,88.08
2022-07-29T05:10:43.610Z,87.55
2022-07-29T05:13:10.394Z,87.18
2022-07-29T05:15:37.668Z,86.04
2022-07-29T05:18:04.797Z,85.68
2022-07-29T05:20:31.911Z,84.33
2022-07-29T05:23:04.829Z,84.08
2022-07-29T05:25:42.945Z,83.48
2022-07-29T05:28:12.283Z,82.67
2022-07-29T05:30:39.474Z,81.53
2022-07-29T05:33:06.043Z,80.88
2022-07-29T05:35:32.784Z,80.21
2022-07-29T05:37:59.380Z,78.96
2022-07-29T05:40:25.817Z,77.98
2022-07-29T05:42:52.483Z,78.08
2022-07-29T05:45:19.129Z,77.62
2022-07-29T05:47:46.486Z,76.63
2022-07-29T05:50:13.391Z,75.50
2022-07-29T05:52:40.128Z,71.93
2022-07-29T05:55:06.902Z,67.83
2022-07-29T05:57:33.748Z,63.58
2022-07-29T06:00:00.439Z,58.66
2022-07-29T06:02:27.070Z,56.02
2022-07-29T06:04:53.836Z,54.02
2022-07-29T06:07:20.811Z,52.06
2022-07-29T06:09:47.438Z,48.92
2022-07-29T06:12:14.174Z,43.82
2022-07-29T06:14:41.106Z,40.76
2022-07-29T06:17:07.899Z,39.26
2022-07-29T06:19:37.682Z,37.92
2022-07-29T06:22:04.869Z,37.67
2022-07-29T06:24:31.677Z,37.57
2022-07-29T06:26:58.359Z,37.35
2022-07-29T06:29:24.865Z,37.45
2022-07-29T06:31:51.707Z,35.24
2022-07-29T06:34:18.582Z,33.76
2022-07-29T06:36:46.036Z,33.40
2022-07-29T06:39:12.941Z,32.51
2022-07-29T06:41:39.825Z,33.73
2022-07-29T06:44:06.506Z,33.32
2022-07-29T06:46:33.621Z,32.41
2022-07-29T06:49:03.170Z,31.75
2022-07-29T06:51:29.917Z,31.79
2022-07-29T06:54:02.454Z,32.46
2022-07-29T06:56:39.663Z,30.08
2022-07-29T06:59:10.330Z,29.57
2022-07-29T07:01:38.643Z,28.98
2022-07-29T07:04:05.379Z,28.45
2022-07-29T07:06:31.946Z,26.73
2022-07-29T07:08:58.584Z,27.53
2022-07-29T07:11:25.078Z,28.39
2022-07-29T07:13:51.625Z,27.25
2022-07-29T07:16:18.186Z,27.47
2022-07-29T07:18:46.154Z,26.73
2022-07-29T07:21:13.296Z,26.66
2022-07-29T07:23:46.045Z,26.42
2022-07-29T07:26:12.541Z,27.75
2022-07-29T07:28:39.546Z,27.38
2022-07-29T07:31:06.211Z,29.04
2022-07-29T07:33:32.702Z,27.12
2022-07-29T07:35:59.464Z,27.09
2022-07-29T07:38:26.019Z,27.16
2022-07-29T07:40:52.768Z,27.38
2022-07-29T07:43:19.338Z,28.02
2022-07-29T07:45:46.192Z,28.87
2022-07-29T07:48:12.757Z,30.13
2022-07-29T07:50:39.622Z,31.41
2022-07-29T07:53:06.472Z,32.26
2022-07-29T07:56:00.024Z,33.90
2022-07-29T07:58:19.698Z,35.32
2022-07-29T08:00:46.307Z,35.90
2022-07-29T08:03:16.817Z,35.99
2022-07-29T08:05:44.056Z,36.14
2022-07-29T08:08:11.047Z,35.59
2022-07-29T08:11:00.594Z,36.24
2022-07-29T08:13:31.309Z,37.95
2022-07-29T08:16:03.252Z,39.05
2022-07-29T08:18:31.092Z,39.90
2022-07-29T08:20:58.626Z,40.20
2022-07-29T08:23:25.540Z,39.35
2022-07-29T08:25:52.436Z,38.63
2022-07-29T08:28:21.729Z,38.47
2022-07-29T08:30:52.873Z,37.82
2022-07-29T08:33:19.618Z,38.13
2022-07-29T08:35:46.607Z,38.31
2022-07-29T08:38:13.601Z,37.81
2022-07-29T08:40:40.673Z,37.07
2022-07-29T08:43:08.686Z,38.88
2022-07-29T08:45:48.062Z,38.76
2022-07-29T08:48:22.418Z,38.10
2022-07-29T08:50:52.457Z,37.86
2022-07-29T08:53:19.413Z,38.31
2022-07-29T08:55:48.105Z,40.25
2022-07-29T08:58:15.947Z,40.21
2022-07-29T09:00:45.217Z,39.02
2022-07-29T09:03:17.561Z,38.20
2022-07-29T09:05:47.849Z,37.45
2022-07-29T09:08:16.440Z,38.81
2022-07-29T09:10:43.203Z,40.43
2022-07-29T09:13:09.770Z,42.63
2022-07-29T09:15:36.258Z,42.07
2022-07-29T09:18:04.270Z,41.34
2022-07-29T09:20:50.830Z,40.14
2022-07-29T09:23:24.072Z,41.89
2022-07-29T09:25:51.013Z,41.20
2022-07-29T09:28:17.952Z,42.09
2022-07-29T09:30:59.330Z,41.86
2022-07-29T09:33:33.965Z,41.64
2022-07-29T09:36:06.238Z,41.23
2022-07-29T09:38:33.750Z,40.25
2022-07-29T09:41:05.896Z,41.02
2022-07-29T09:43:33.512Z,41.37
2022-07-29T09:46:14.134Z,41.44
2022-07-29T09:48:41.072Z,40.55
2022-07-29T09:51:20.653Z,41.42
2022-07-29T09:53:49.059Z,41.41
2022-07-29T09:56:15.564Z,41.31
2022-07-29T09:58:42.036Z,41.22
2022-07-29T10:01:08.797Z,41.24
2022-07-29T10:03:52.027Z,40.29
2022-07-29T10:06:18.816Z,40.51
2022-07-29T10:08:45.411Z,39.95
2022-07-29T10:11:14.502Z,40.69
2022-07-29T10:13:43.030Z,41.48
2022-07-29T10:16:09.880Z,41.52
2022-07-29T10:18:36.542Z,42.38
2022-07-29T10:21:03.812Z,41.72
2022-07-29T10:23:31.082Z,41.24
2022-07-29T10:26:14.014Z,40.13
2022-07-29T10:28:40.754Z,39.51
2022-07-29T10:31:09.425Z,39.49
2022-07-29T10:33:54.604Z,38.66
2022-07-29T10:36:24.573Z,39.23
2022-07-29T10:39:03.438Z,38.92
2022-07-29T10:41:44.470Z,38.51
2022-07-29T10:44:29.974Z,38.24
2022-07-29T10:46:56.825Z,38.65
2022-07-29T10:49:27.700Z,39.47
2022-07-29T10:52:08.560Z,38.48
2022-07-29T10:54:43.719Z,38.47
2022-07-29T10:57:17.756Z,38.82
2022-07-29T10:59:46.380Z,39.53
2022-07-29T11:02:42.406Z,40.22
2022-07-29T11:05:20.170Z,38.25
2022-07-29T11:08:20.116Z,39.37
2022-07-29T11:10:51.630Z,38.92
2022-07-29T11:13:43.169Z,39.50
2022-07-29T11:16:09.677Z,40.01
2022-07-29T11:18:37.837Z,40.24
2022-07-29T11:21:04.554Z,40.10
2022-07-29T11:23:40.417Z,38.94
2022-07-29T11:26:23.320Z,38.71
2022-07-29T11:29:03.345Z,39.05
2022-07-29T11:31:34.336Z,39.51
2022-07-29T11:34:20.931Z,39.59
2022-07-29T11:37:15.042Z,38.86
2022-07-29T11:39:47.669Z,38.93
2022-07-29T11:42:28.785Z,39.46
2022-07-29T11:45:42.004Z,39.03
2022-07-29T11:48:05.325Z,38.50
2022-07-29T11:50:45.944Z,38.27
2022-07-29T11:53:15.273Z,37.87
2022-07-29T11:55:51.626Z,38.60
2022-07-29T11:58:25.025Z,39.05
2022-07-29T12:00:52.805Z,37.66
2022-07-29T12:03:33.581Z,37.83
2022-07-29T12:06:02.792Z,37.96
2022-07-29T12:08:29.429Z,38.32
2022-07-29T12:10:55.987Z,37.87
2022-07-29T12:13:22.973Z,37.09
2022-07-29T12:16:05.228Z,37.38
2022-07-29T12:18:32.012Z,36.62
2022-07-29T12:21:03.421Z,36.02
2022-07-29T12:23:34.943Z,36.50
2022-07-29T12:26:05.186Z,36.79
2022-07-29T12:28:38.680Z,36.65
2022-07-29T12:31:05.886Z,36.35
2022-07-29T12:33:32.455Z,36.61
2022-07-29T12:36:06.955Z,36.45
2022-07-29T12:38:35.833Z,35.94
2022-07-29T12:41:02.836Z,36.62
2022-07-29T12:43:31.791Z,36.91
2022-07-29T12:45:58.362Z,36.97
2022-07-29T12:48:38.891Z,37.20
2022-07-29T12:51:07.712Z,36.85
2022-07-29T12:53:34.944Z,36.31
2022-07-29T12:56:20.692Z,37.12
2022-07-29T12:58:53.819Z,37.09
2022-07-29T13:01:21.985Z,36.90
2022-07-29T13:03:57.195Z,36.36
2022-07-29T13:06:30.753Z,36.51
2022-07-29T13:09:08.280Z,36.52
2022-07-29T13:11:44.019Z,36.47
2022-07-29T13:14:15.802Z,36.78
2022-07-29T13:17:11.726Z,36.71
2022-07-29T13:19:43.223Z,36.93
2022-07-29T13:22:14.996Z,36.43
2022-07-29T13:24:58.804Z,36.79
2022-07-29T13:27:30.404Z,36.55
2022-07-29T13:29:58.750Z,36.42
2022-07-29T13:32:28.522Z,35.79
2022-07-29T13:35:01.159Z,34.88
2022-07-29T13:37:33.924Z,34.93
2022-07-29T13:40:00.916Z,34.51
2022-07-29T13:42:27.754Z,34.85
2022-07-29T13:44:54.869Z,35.04
2022-07-29T13:47:22.023Z,34.49
2022-07-29T13:49:49.239Z,35.25
2022-07-29T13:52:16.722Z,34.65
2022-07-29T13:54:44.167Z,34.32
2022-07-29T13:57:12.063Z,34.14
2022-07-29T13:59:42.870Z,34.30
2022-07-29T14:02:10.705Z,34.08
2022-07-29T14:04:39.611Z,33.31
2022-07-29T14:07:06.901Z,33.52
2022-07-29T14:09:41.190Z,34.11
2022-07-29T14:12:08.904Z,33.37
2022-07-29T14:14:37.625Z,33.98
2022-07-29T14:17:07.234Z,34.47
2022-07-29T14:19:36.601Z,35.04
2022-07-29T14:22:05.989Z,36.33
2022-07-29T14:24:33.871Z,35.50
2022-07-29T14:27:05.480Z,35.98
2022-07-29T14:29:37.775Z,36.32
2022-07-29T14:32:08.957Z,35.74
2022-07-29T14:34:39.307Z,35.37
2022-07-29T14:37:06.715Z,34.77
2022-07-29T14:39:36.923Z,34.46
2022-07-29T14:42:06.424Z,34.34
2022-07-29T14:44:33.079Z,34.34
2022-07-29T14:47:00.931Z,34.80
2022-07-29T14:49:33.919Z,33.79
2022-07-29T14:52:01.225Z,34.11
2022-07-29T14:54:28.404Z,33.94
2022-07-29T14:56:57.962Z,32.89
2022-07-29T14:59:25.178Z,33.14
2022-07-29T15:01:51.893Z,32.95
2022-07-29T15:04:18.548Z,33.28
2022-07-29T15:06:45.211Z,33.05
2022-07-29T15:09:11.967Z,33.04
2022-07-29T15:11:38.952Z,32.35
2022-07-29T15:14:06.678Z,32.14
2022-07-29T15:16:34.219Z,32.56
2022-07-29T15:19:01.909Z,31.77
2022-07-29T15:21:28.687Z,32.08
2022-07-29T15:23:55.409Z,32.85
2022-07-29T15:26:22.007Z,33.46
2022-07-29T15:28:48.917Z,33.69
2022-07-29T15:31:15.847Z,34.23
2022-07-29T15:33:42.482Z,34.18
2022-07-29T15:36:09.234Z,35.10
2022-07-29T15:38:35.925Z,34.90
2022-07-29T15:41:08.908Z,34.95
2022-07-29T15:43:38.724Z,35.35
2022-07-29T15:46:23.891Z,35.47
2022-07-29T15:48:50.891Z,35.52
2022-07-29T15:51:17.519Z,34.98
2022-07-29T15:53:44.036Z,35.59
2022-07-29T15:56:20.836Z,35.52
2022-07-29T15:58:47.359Z,35.92
2022-07-29T16:01:14.037Z,35.42
2022-07-29T16:03:45.731Z,35.77
2022-07-29T16:06:12.846Z,35.20
2022-07-29T16:08:39.605Z,35.36
2022-07-29T16:11:06.325Z,35.32
2022-07-29T16:13:32.817Z,35.18
2022-07-29T16:16:01.848Z,36.01
2022-07-29T16:18:30.543Z,36.16
2022-07-29T16:20:57.320Z,36.71
2022-07-29T16:23:24.676Z,36.70
2022-07-29T16:25:59.638Z,36.21
2022-07-29T16:28:26.888Z,36.39
2022-07-29T16:30:53.680Z,36.41
2022-07-29T16:33:20.147Z,37.03
2022-07-29T16:35:46.645Z,36.46
2022-07-29T16:38:13.465Z,36.63
2022-07-29T16:40:40.049Z,36.83
2022-07-29T16:43:06.641Z,36.96
2022-07-29T16:45:43.890Z,36.45
2022-07-29T16:48:14.066Z,36.44
2022-07-29T16:50:41.170Z,36.21
2022-07-29T16:53:10.589Z,36.41
2022-07-29T16:55:37.118Z,36.42
2022-07-29T16:58:06.524Z,36.28
2022-07-29T17:00:33.170Z,36.31
2022-07-29T17:03:00.060Z,36.01
2022-07-29T17:05:29.720Z,36.51
2022-07-29T17:08:16.331Z,36.45
2022-07-29T17:10:43.057Z,36.83
2022-07-29T17:13:09.587Z,35.88
2022-07-29T17:15:36.631Z,36.01
2022-07-29T17:18:12.851Z,35.63
2022-07-29T17:20:41.422Z,35.40
2022-07-29T17:23:08.087Z,35.08
2022-07-29T17:25:34.562Z,35.42
2022-07-29T17:28:01.567Z,35.41
2022-07-29T17:30:29.189Z,35.37
2022-07-29T17:32:55.887Z,35.43
2022-07-29T17:35:41.188Z,35.74
2022-07-29T17:38:07.669Z,36.33
2022-07-29T17:40:34.192Z,36.44
2022-07-29T17:43:00.791Z,36.41
2022-07-29T17:45:49.948Z,36.75
2022-07-29T17:48:14.446Z,37.30
2022-07-29T17:50:41.190Z,36.89
2022-07-29T17:53:15.538Z,37.19
2022-07-29T17:55:45.519Z,37.62
2022-07-29T17:58:12.292Z,38.25
2022-07-29T18:00:39.217Z,38.89
2022-07-29T18:03:06.174Z,39.34
2022-07-29T18:05:33.003Z,39.80
2022-07-29T18:07:59.525Z,40.05
2022-07-29T18:10:26.431Z,40.40
2022-07-29T18:12:52.937Z,40.41
2022-07-29T18:15:19.528Z,40.82
2022-07-29T18:17:56.813Z,41.40
2022-07-29T18:20:23.968Z,41.50
2022-07-29T18:22:51.240Z,42.14
2022-07-29T18:25:17.829Z,41.82
2022-07-29T18:27:44.484Z,42.20
2022-07-29T18:30:11.287Z,42.58
2022-07-29T18:32:37.827Z,43.29
2022-07-29T18:35:06.352Z,43.22
2022-07-29T18:38:00.871Z,43.15
2022-07-29T18:40:23.945Z,43.24
2022-07-29T18:42:50.677Z,43.58
2022-07-29T18:45:19.568Z,43.96
2022-07-29T18:47:47.586Z,44.08
2022-07-29T18:50:14.743Z,44.37
2022-07-29T18:52:41.541Z,44.78
2022-07-29T18:55:08.726Z,44.58
2022-07-29T18:57:54.745Z,45.31
2022-07-29T19:00:23.793Z,44.78
2022-07-29T19:02:50.700Z,45.20
2022-07-29T19:05:17.332Z,45.14
2022-07-29T19:07:43.853Z,45.21
2022-07-29T19:10:11.322Z,44.76
2022-07-29T19:12:37.883Z,45.21
2022-07-29T19:15:04.796Z,45.21
2022-07-29T19:17:31.446Z,45.03
2022-07-29T19:19:58.129Z,44.84
2022-07-29T19:22:24.718Z,45.23
2022-07-29T19:24:51.472Z,45.14
2022-07-29T19:27:18.094Z,45.03
2022-07-29T19:29:44.695Z,44.99
2022-07-29T19:32:11.546Z,45.29
2022-07-29T19:34:38.448Z,45.36
2022-07-29T19:37:05.316Z,45.50
2022-07-29T19:39:35.385Z,45.50
2022-07-29T19:42:03.513Z,45.28
2022-07-29T19:44:30.187Z,46.10
2022-07-29T19:46:57.329Z,45.56
2022-07-29T19:49:24.151Z,45.42
2022-07-29T19:51:50.724Z,45.80
2022-07-29T19:54:20.199Z,45.72
2022-07-29T19:56:46.682Z,45.74
2022-07-29T19:59:13.155Z,45.93
2022-07-29T20:01:39.913Z,46.01
2022-07-29T20:04:06.489Z,46.46
2022-07-29T20:06:33.115Z,46.72
2022-07-29T20:08:59.685Z,46.86
2022-07-29T20:11:26.581Z,46.86
2022-07-29T20:13:53.221Z,46.74
2022-07-29T20:16:19.939Z,47.10
2022-07-29T20:18:46.484Z,47.09
2022-07-29T20:21:13.437Z,46.86
2022-07-29T20:23:40.010Z,47.23
2022-07-29T20:26:09.516Z,47.00
2022-07-29T20:28:37.218Z,47.46
2022-07-29T20:31:04.599Z,47.09
2022-07-29T20:33:31.085Z,47.17
2022-07-29T20:35:57.588Z,47.27
2022-07-29T20:38:24.153Z,47.65
2022-07-29T20:40:50.904Z,47.49
2022-07-29T20:43:17.482Z,48.00
2022-07-29T20:45:44.102Z,48.10
2022-07-29T20:48:10.729Z,48.08
2022-07-29T20:50:37.272Z,48.08
2022-07-29T20:53:04.753Z,48.26
2022-07-29T20:55:32.097Z,48.01
2022-07-29T20:57:58.845Z,48.36
2022-07-29T21:00:25.520Z,48.71
2022-07-29T21:02:52.074Z,48.86
2022-07-29T21:05:18.599Z,49.20
2022-07-29T21:07:45.317Z,49.57
2022-07-29T21:10:12.109Z,49.88
2022-07-29T21:12:38.658Z,50.14
2022-07-29T21:15:06.634Z,49.97
2022-07-29T21:17:38.912Z,50.30
2022-07-29T21:20:08.620Z,50.57
2022-07-29T21:22:35.128Z,50.49
2022-07-29T21:25:01.750Z,50.76
2022-07-29T21:27:47.283Z,50.30
2022-07-29T21:30:13.838Z,50.57
2022-07-29T21:32:40.568Z,50.65
2022-07-29T21:35:14.580Z,50.79
2022-07-29T21:37:54.061Z,50.83
2022-07-29T21:40:20.972Z,50.41
2022-07-29T21:42:47.504Z,50.39
2022-07-29T21:45:16.279Z,50.56
2022-07-29T21:47:42.919Z,50.63
2022-07-29T21:50:09.732Z,50.46
2022-07-29T21:52:37.393Z,50.72
2022-07-29T21:55:04.986Z,50.65
2022-07-29T21:57:31.556Z,50.69
2022-07-29T22:00:02.515Z,50.95
2022-07-29T22:02:29.720Z,50.75
2022-07-29T22:04:56.207Z,50.99
2022-07-29T22:07:22.712Z,50.82
2022-07-29T22:09:49.346Z,51.28
2022-07-29T22:12:16.228Z,51.39
2022-07-29T22:14:42.696Z,51.25
2022-07-29T22:17:09.366Z,51.48
2022-07-29T22:19:35.900Z,51.19
2022-07-29T22:22:02.620Z,51.86
2022-07-29T22:24:29.214Z,52.19
2022-07-29T22:26:55.912Z,52.07
2022-07-29T22:29:22.425Z,52.29
2022-07-29T22:31:49.225Z,52.57
2022-07-29T22:34:15.740Z,52.49
2022-07-29T22:36:43.308Z,52.50
2022-07-29T22:39:09.871Z,52.23
2022-07-29T22:41:36.366Z,52.61
2022-07-29T22:44:03.091Z,52.71
2022-07-29T22:46:30.104Z,52.75
2022-07-29T22:48:57.641Z,52.57
2022-07-29T22:51:24.278Z,52.71
2022-07-29T22:53:51.396Z,52.67
2022-07-29T22:56:18.809Z,52.92
2022-07-29T22:58:45.420Z,52.67
2022-07-29T23:01:11.986Z,52.44
2022-07-29T23:03:39.505Z,53.20
2022-07-29T23:06:06.135Z,53.29
2022-07-29T23:08:32.635Z,52.92
2022-07-29T23:10:59.129Z,53.35
2022-07-29T23:13:25.741Z,53.19
2022-07-29T23:15:52.335Z,53.56
2022-07-29T23:18:18.873Z,52.95
2022-07-29T23:20:45.429Z,53.33
2022-07-29T23:23:11.956Z,53.11
2022-07-29T23:25:38.465Z,53.14
2022-07-29T23:28:05.386Z,53.06
2022-07-29T23:30:32.069Z,52.98
2022-07-29T23:32:58.677Z,53.06
2022-07-29T23:35:25.445Z,53.21
2022-07-29T23:37:52.295Z,53.65
2022-07-29T23:40:18.966Z,53.46
2022-07-29T23:42:45.560Z,53.73
2022-07-29T23:45:13.500Z,53.89
2022-07-29T23:47:40.166Z,53.65
2022-07-29T23:50:08.430Z,54.10
2022-07-29T23:52:35.684Z,53.58
2022-07-29T23:55:36.502Z,53.85
2022-07-29T23:57:50.284Z,53.90
